Time;durP1;ratioP1;P1;durP2;ratioP2;P2;SDS_P1;SDS_P2;PMS_P1;PMS_P2;Temp;Humidity;BMP_temperature;BMP_pressure;BME280_temperature;BME280_humidity;BME280_pressure;Samples;Min_cycle;Max_cycle;Signal;HPM_P1;HPM_P2
2021/12/02 00:00:13;;;;;;;2.10;1.20;;;6.10;97.30;;;;;;4985987;28;20475;-84
2021/12/02 00:02:39;;;;;;;1.10;1.00;;;6.10;97.30;;;;;;4975186;28;20515;-83
2021/12/02 00:05:05;;;;;;;3.23;1.10;;;6.10;97.30;;;;;;4973333;28;20449;-84
2021/12/02 00:07:31;;;;;;;3.13;1.50;;;6.00;97.30;;;;;;4980178;28;20198;-84
2021/12/02 00:09:56;;;;;;;2.87;1.70;;;6.00;97.30;;;;;;4981391;28;20457;-84
2021/12/02 00:12:22;;;;;;;6.50;1.30;;;6.00;97.30;;;;;;4986631;28;20636;-83
2021/12/02 00:14:49;;;;;;;3.27;1.37;;;5.90;97.30;;;;;;4991976;28;20173;-83
2021/12/02 00:17:22;;;;;;;1.63;1.23;;;5.90;97.30;;;;;;4987484;28;20504;-84
2021/12/02 00:22:41;;;;;;;1.67;1.20;;;5.90;97.30;;;;;;4989619;28;20427;-83
2021/12/02 00:25:07;;;;;;;5.07;1.30;;;5.80;97.30;;;;;;4972826;28;20817;-83
2021/12/02 00:27:34;;;;;;;2.90;1.30;;;5.80;97.30;;;;;;4993322;28;20445;-84
2021/12/02 00:30:01;;;;;;;2.63;1.10;;;5.80;97.30;;;;;;4973601;28;20194;-84
2021/12/02 00:32:28;;;;;;;1.43;1.10;;;5.80;97.30;;;;;;4988340;28;20413;-83
2021/12/02 00:34:55;;;;;;;4.70;1.53;;;5.70;97.30;;;;;;4989743;28;20422;-83
2021/12/02 00:37:22;;;;;;;2.83;1.10;;;5.70;97.30;;;;;;4990319;28;20462;-83
2021/12/02 00:39:48;;;;;;;2.10;1.60;;;5.70;97.30;;;;;;4989241;28;20477;-83
2021/12/02 00:42:14;;;;;;;2.23;1.27;;;5.60;97.30;;;;;;4981033;28;20421;-82
2021/12/02 00:44:40;;;;;;;1.30;1.20;;;5.60;97.30;;;;;;4977552;28;20429;-83
2021/12/02 00:47:08;;;;;;;3.63;1.20;;;5.60;97.30;;;;;;4973285;28;20438;-82
2021/12/02 00:49:33;;;;;;;2.70;1.30;;;5.60;97.30;;;;;;4972686;28;20457;-84
2021/12/02 00:52:00;;;;;;;3.53;1.40;;;5.70;97.30;;;;;;4973100;28;20506;-83
2021/12/02 00:54:27;;;;;;;1.87;1.33;;;5.70;97.30;;;;;;4972157;28;20206;-83
2021/12/02 00:56:54;;;;;;;2.67;1.20;;;5.70;97.30;;;;;;4974268;28;20513;-83
2021/12/02 00:59:21;;;;;;;2.30;1.30;;;5.70;97.30;;;;;;4984119;28;20436;-83
2021/12/02 01:01:48;;;;;;;2.63;1.30;;;5.80;97.30;;;;;;4992497;28;20630;-83
2021/12/02 01:04:19;;;;;;;3.27;1.70;;;5.80;97.30;;;;;;4991532;28;20922;-82
2021/12/02 01:06:45;;;;;;;5.90;1.30;;;5.80;97.30;;;;;;4991799;28;20961;-83
2021/12/02 01:09:12;;;;;;;4.53;1.67;;;5.80;97.30;;;;;;4990773;28;20409;-82
2021/12/02 01:11:39;;;;;;;2.20;1.20;;;5.80;97.30;;;;;;4991680;28;20430;-83
2021/12/02 01:14:05;;;;;;;3.27;1.37;;;5.80;97.30;;;;;;4990650;28;20444;-83
2021/12/02 01:16:31;;;;;;;2.90;1.30;;;5.80;97.30;;;;;;4991349;28;20433;-84
2021/12/02 01:18:57;;;;;;;4.80;1.60;;;5.80;97.30;;;;;;4990438;28;20432;-83
2021/12/02 01:21:25;;;;;;;1.27;1.17;;;5.80;97.30;;;;;;5007766;28;20429;-84
2021/12/02 01:23:56;;;;;;;7.70;1.57;;;5.80;97.30;;;;;;5007487;28;20174;-84
2021/12/02 01:26:21;;;;;;;7.97;1.47;;;5.80;97.30;;;;;;5007599;28;20698;-84
2021/12/02 01:28:49;;;;;;;4.90;2.43;;;5.80;97.30;;;;;;4992628;28;20456;-84
2021/12/02 01:31:15;;;;;;;1.80;1.40;;;5.80;97.30;;;;;;5007203;28;20212;-84
2021/12/02 01:33:44;;;;;;;2.10;1.40;;;5.80;97.30;;;;;;5006574;28;20422;-84
2021/12/02 01:36:10;;;;;;;5.80;1.53;;;5.80;97.30;;;;;;5006626;28;20692;-84
2021/12/02 01:38:36;;;;;;;7.63;1.53;;;5.80;97.30;;;;;;5006957;28;20404;-83
2021/12/02 01:41:03;;;;;;;1.77;1.30;;;5.80;97.30;;;;;;5008043;28;20802;-83
2021/12/02 01:43:47;;;;;;;4.17;1.37;;;5.80;97.30;;;;;;5008047;28;20256;-83
2021/12/02 01:46:15;;;;;;;3.97;1.50;;;5.70;97.30;;;;;;4991333;28;20452;-83
2021/12/02 01:48:42;;;;;;;2.70;1.50;;;5.70;97.30;;;;;;4993104;28;20464;-84
2021/12/02 01:51:13;;;;;;;1.93;1.30;;;5.70;97.30;;;;;;5007237;28;20555;-84
2021/12/02 01:53:40;;;;;;;1.57;1.03;;;5.70;97.30;;;;;;5007586;28;20413;-83
2021/12/02 01:56:13;;;;;;;3.57;1.50;;;5.70;97.30;;;;;;5006816;28;20974;-83
2021/12/02 01:58:51;;;;;;;5.03;1.60;;;5.70;97.30;;;;;;4990920;28;20447;-84
2021/12/02 02:01:27;;;;;;;4.20;1.40;;;5.70;97.30;;;;;;5006947;28;20424;-83
2021/12/02 02:03:55;;;;;;;3.10;1.83;;;5.70;97.30;;;;;;5006374;28;20443;-84
2021/12/02 02:06:33;;;;;;;2.37;1.77;;;5.70;97.30;;;;;;5006364;28;20444;-84
2021/12/02 02:08:59;;;;;;;4.90;1.73;;;5.60;97.30;;;;;;5006680;28;20413;-83
2021/12/02 02:11:30;;;;;;;7.23;1.77;;;5.70;97.30;;;;;;5007159;28;20480;-84
2021/12/02 02:13:57;;;;;;;2.90;1.60;;;5.70;97.30;;;;;;5006738;28;20425;-84
2021/12/02 02:16:23;;;;;;;2.80;1.60;;;5.70;97.30;;;;;;5006479;28;20457;-84
2021/12/02 02:18:49;;;;;;;1.57;1.47;;;5.70;97.30;;;;;;5006792;28;20427;-84
2021/12/02 02:21:17;;;;;;;6.10;1.77;;;5.60;97.30;;;;;;5007013;28;20425;-83
2021/12/02 02:23:58;;;;;;;2.57;1.40;;;5.60;97.30;;;;;;5006255;28;20181;-83
2021/12/02 02:26:36;;;;;;;3.17;1.50;;;5.60;97.30;;;;;;5009254;28;20437;-84
2021/12/02 02:29:04;;;;;;;1.53;1.23;;;5.60;97.30;;;;;;5010506;28;20424;-83
2021/12/02 02:31:31;;;;;;;5.93;1.57;;;5.50;97.30;;;;;;5010303;28;20461;-84
2021/12/02 02:33:58;;;;;;;3.20;1.63;;;5.50;97.30;;;;;;5010234;28;20907;-85
2021/12/02 02:36:33;;;;;;;2.10;1.73;;;5.50;97.30;;;;;;5010741;28;20441;-84
2021/12/02 02:39:02;;;;;;;6.00;1.57;;;5.40;97.30;;;;;;5010977;28;20922;-83
2021/12/02 02:41:32;;;;;;;4.83;1.40;;;5.40;97.30;;;;;;5010818;28;20433;-84
2021/12/02 02:43:59;;;;;;;5.13;1.50;;;5.40;97.30;;;;;;5010394;28;20826;-84
2021/12/02 02:46:31;;;;;;;3.93;1.40;;;5.40;97.30;;;;;;4993353;28;20444;-84
2021/12/02 02:48:58;;;;;;;1.30;1.30;;;5.40;97.30;;;;;;4993606;28;20860;-85
2021/12/02 02:51:24;;;;;;;3.20;1.43;;;5.40;97.30;;;;;;4993665;28;20488;-84
2021/12/02 02:53:52;;;;;;;2.40;1.40;;;5.40;97.30;;;;;;4992965;28;20443;-83
2021/12/02 02:56:27;;;;;;;1.40;1.30;;;5.40;97.30;;;;;;4992985;28;20441;-82
2021/12/02 03:09:07;;;;;;;2.70;1.60;;;5.30;97.30;;;;;;4974348;28;20436;-83
2021/12/02 03:11:47;;;;;;;4.67;1.43;;;5.40;97.30;;;;;;4973055;28;20928;-83
2021/12/02 03:14:18;;;;;;;2.90;1.40;;;5.30;97.30;;;;;;4974471;28;20398;-83
2021/12/02 03:16:44;;;;;;;3.73;1.40;;;5.30;97.30;;;;;;4991196;28;20857;-83
2021/12/02 03:19:15;;;;;;;3.33;1.70;;;5.30;97.30;;;;;;4992327;28;20420;-81
2021/12/02 03:21:41;;;;;;;6.70;1.83;;;5.30;97.30;;;;;;4993838;28;20401;-83
2021/12/02 03:24:07;;;;;;;2.13;1.50;;;5.30;97.30;;;;;;4992116;28;20420;-83
2021/12/02 03:26:34;;;;;;;4.07;1.40;;;5.30;97.30;;;;;;4992247;28;20520;-84
2021/12/02 03:29:01;;;;;;;3.63;2.27;;;5.30;97.30;;;;;;4991544;28;20413;-83
2021/12/02 03:31:27;;;;;;;8.20;1.80;;;5.30;97.30;;;;;;4991639;28;20464;-83
2021/12/02 03:33:53;;;;;;;1.97;1.30;;;5.20;97.30;;;;;;4991951;28;20949;-83
2021/12/02 03:36:19;;;;;;;5.70;1.67;;;5.10;97.30;;;;;;4991209;28;20505;-83
2021/12/02 03:38:46;;;;;;;3.57;1.37;;;5.10;97.30;;;;;;4991329;28;20409;-83
2021/12/02 03:41:12;;;;;;;2.40;1.60;;;5.10;97.30;;;;;;4991473;28;20417;-85
2021/12/02 03:43:43;;;;;;;2.30;1.50;;;4.90;97.30;;;;;;4991790;28;20431;-85
2021/12/02 03:46:10;;;;;;;3.63;1.53;;;4.70;97.30;;;;;;4991715;28;20449;-84
2021/12/02 03:48:37;;;;;;;4.50;1.60;;;4.50;97.30;;;;;;4991793;28;20504;-84
2021/12/02 03:51:04;;;;;;;2.17;1.50;;;4.40;97.30;;;;;;4991562;28;20457;-84
2021/12/02 03:53:29;;;;;;;5.13;2.10;;;4.30;97.30;;;;;;4992307;28;20417;-85
2021/12/02 03:55:55;;;;;;;6.30;1.40;;;4.20;97.30;;;;;;4991300;28;20841;-84
2021/12/02 03:58:20;;;;;;;2.93;1.30;;;4.10;97.30;;;;;;4991052;28;20177;-85
2021/12/02 04:00:46;;;;;;;1.57;1.20;;;4.00;97.30;;;;;;4991273;28;20185;-84
2021/12/02 04:03:12;;;;;;;2.13;1.57;;;4.00;97.30;;;;;;4991423;28;20230;-84
2021/12/02 04:05:37;;;;;;;3.43;1.40;;;3.90;97.30;;;;;;4991059;28;20396;-84
2021/12/02 04:08:03;;;;;;;2.50;1.30;;;3.90;97.30;;;;;;4991006;28;20260;-84
2021/12/02 04:10:31;;;;;;;5.50;2.83;;;3.90;97.30;;;;;;4990980;28;20217;-84
2021/12/02 04:15:29;;;;;;;4.50;1.20;;;3.90;97.30;;;;;;4992717;28;20417;-84
2021/12/02 04:17:55;;;;;;;3.93;3.73;;;3.90;97.30;;;;;;4991519;28;20432;-84
2021/12/02 04:20:23;;;;;;;2.00;1.60;;;4.00;97.30;;;;;;4991001;28;20421;-84
2021/12/02 04:22:50;;;;;;;3.40;1.80;;;4.10;97.30;;;;;;4991560;28;20551;-84
2021/12/02 04:25:17;;;;;;;6.30;1.53;;;4.10;97.30;;;;;;4992558;28;20409;-84
2021/12/02 04:27:44;;;;;;;1.80;1.10;;;4.10;97.30;;;;;;4991474;28;20421;-84
2021/12/02 04:30:21;;;;;;;6.63;1.30;;;4.00;97.30;;;;;;4990746;28;20508;-84
2021/12/02 04:32:47;;;;;;;2.00;1.43;;;4.00;97.30;;;;;;4991150;28;20447;-83
2021/12/02 04:35:14;;;;;;;4.27;1.47;;;4.00;97.30;;;;;;4991403;28;20417;-84
2021/12/02 04:37:40;;;;;;;3.03;1.90;;;4.00;97.30;;;;;;4991087;28;20430;-83
2021/12/02 04:40:07;;;;;;;11.50;1.50;;;4.00;97.30;;;;;;4991777;28;20424;-83
2021/12/02 04:42:33;;;;;;;4.03;1.80;;;3.90;97.30;;;;;;4991507;28;20425;-83
2021/12/02 04:44:58;;;;;;;7.07;1.57;;;3.90;97.30;;;;;;4991196;28;20506;-83
2021/12/02 04:47:24;;;;;;;3.77;1.37;;;3.90;97.30;;;;;;4990265;28;20519;-84
2021/12/02 04:49:51;;;;;;;2.83;1.30;;;3.90;97.30;;;;;;4975818;28;20206;-84
2021/12/02 04:52:16;;;;;;;10.07;1.73;;;3.90;97.30;;;;;;4971367;28;20693;-84
2021/12/02 04:54:42;;;;;;;1.43;1.17;;;3.90;97.30;;;;;;4972553;28;20479;-84
2021/12/02 04:57:08;;;;;;;6.63;1.73;;;3.90;97.30;;;;;;4972285;28;20198;-84
2021/12/02 04:59:33;;;;;;;5.10;1.70;;;3.90;97.30;;;;;;4985761;28;20181;-83
2021/12/02 05:01:59;;;;;;;3.80;1.67;;;3.80;97.30;;;;;;4991420;28;20337;-84
2021/12/02 05:04:24;;;;;;;3.37;1.50;;;3.90;97.30;;;;;;4992145;28;20192;-83
2021/12/02 05:06:50;;;;;;;3.90;1.57;;;3.90;97.30;;;;;;4991968;28;20210;-83
2021/12/02 05:09:15;;;;;;;1.90;1.20;;;3.90;97.30;;;;;;4992015;28;20197;-83
2021/12/02 05:11:41;;;;;;;2.77;1.20;;;4.00;97.30;;;;;;4992232;28;20178;-84
2021/12/02 05:14:08;;;;;;;3.53;1.57;;;4.00;97.30;;;;;;4991865;28;20214;-82
2021/12/02 05:16:38;;;;;;;4.73;1.13;;;4.00;97.30;;;;;;5007380;28;20198;-83
2021/12/02 05:19:04;;;;;;;4.30;1.80;;;4.00;97.30;;;;;;5007820;28;20425;-85
2021/12/02 05:21:30;;;;;;;1.97;1.50;;;4.00;97.30;;;;;;5007119;28;20993;-84
2021/12/02 05:23:55;;;;;;;7.50;1.67;;;4.00;97.30;;;;;;5008010;28;20235;-83
2021/12/02 05:26:22;;;;;;;3.10;1.57;;;4.00;97.30;;;;;;5008790;28;20248;-83
2021/12/02 05:28:48;;;;;;;2.40;1.30;;;3.90;97.30;;;;;;5009976;28;20192;-82
2021/12/02 05:31:14;;;;;;;2.00;1.33;;;3.90;97.30;;;;;;5009122;28;20473;-83
2021/12/02 05:33:39;;;;;;;3.03;1.50;;;3.80;97.30;;;;;;5009384;28;20189;-83
2021/12/02 05:36:05;;;;;;;4.27;1.60;;;3.80;97.30;;;;;;5009534;28;20453;-83
2021/12/02 05:38:30;;;;;;;9.43;1.57;;;3.80;97.30;;;;;;4993173;28;20304;-83
2021/12/02 05:40:56;;;;;;;3.53;1.30;;;3.70;97.30;;;;;;5008231;28;20294;-83
2021/12/02 05:43:22;;;;;;;1.23;1.13;;;3.70;97.30;;;;;;5007185;28;20189;-83
2021/12/02 05:45:47;;;;;;;4.23;1.53;;;3.70;97.30;;;;;;5008030;28;20675;-83
2021/12/02 05:48:13;;;;;;;3.30;1.40;;;3.70;97.30;;;;;;5008020;28;20288;-83
2021/12/02 05:50:39;;;;;;;4.10;1.70;;;3.60;97.30;;;;;;5006856;28;20201;-84
2021/12/02 05:53:04;;;;;;;5.00;1.50;;;3.60;97.30;;;;;;4991354;28;21142;-83
2021/12/02 05:55:30;;;;;;;1.33;1.23;;;3.60;97.30;;;;;;5007737;28;20599;-83
2021/12/02 05:57:56;;;;;;;7.80;1.50;;;3.70;97.30;;;;;;5008563;28;20182;-83
2021/12/02 06:00:21;;;;;;;1.97;1.47;;;3.70;97.30;;;;;;5010477;28;20185;-83
2021/12/02 06:02:47;;;;;;;4.13;1.70;;;3.70;97.30;;;;;;5012655;28;20229;-83
2021/12/02 06:05:16;;;;;;;2.93;1.43;;;3.70;97.30;;;;;;5012202;28;20550;-83
2021/12/02 06:07:43;;;;;;;3.30;1.70;;;3.60;97.30;;;;;;5012542;28;20225;-83
2021/12/02 06:10:09;;;;;;;4.77;1.60;;;3.60;97.30;;;;;;5012302;28;20464;-84
2021/12/02 06:12:34;;;;;;;4.47;1.47;;;3.60;97.30;;;;;;5012728;28;20783;-83
2021/12/02 06:15:00;;;;;;;3.40;1.33;;;3.60;97.30;;;;;;4997194;28;20180;-83
2021/12/02 06:17:25;;;;;;;4.93;1.53;;;3.60;97.30;;;;;;5011704;28;20676;-83
2021/12/02 06:19:51;;;;;;;6.80;1.60;;;3.60;97.30;;;;;;5011308;28;20182;-84
2021/12/02 06:22:16;;;;;;;8.17;1.50;;;3.60;97.30;;;;;;5010829;28;20406;-84
2021/12/02 06:24:43;;;;;;;1.57;1.33;;;3.60;97.30;;;;;;5010892;28;20324;-84
2021/12/02 06:27:12;;;;;;;2.40;1.30;;;3.50;97.30;;;;;;5010263;28;20251;-84
2021/12/02 06:29:39;;;;;;;1.40;1.10;;;3.50;97.30;;;;;;5010540;28;20559;-84
2021/12/02 06:32:07;;;;;;;6.83;1.87;;;3.50;97.30;;;;;;5010613;28;20413;-84
2021/12/02 06:34:33;;;;;;;2.10;1.40;;;3.50;97.30;;;;;;5010292;28;20433;-84
2021/12/02 06:36:58;;;;;;;1.80;1.53;;;3.50;97.30;;;;;;5010920;28;20958;-84
2021/12/02 06:39:24;;;;;;;3.50;1.30;;;3.50;97.30;;;;;;5010562;28;20197;-84
2021/12/02 06:41:49;;;;;;;6.23;2.20;;;3.50;97.30;;;;;;4995609;28;20197;-84
2021/12/02 06:44:15;;;;;;;2.60;1.10;;;3.50;97.30;;;;;;5009928;28;20209;-83
2021/12/02 06:46:41;;;;;;;1.30;1.20;;;3.40;97.30;;;;;;5009381;28;20296;-84
2021/12/02 06:49:07;;;;;;;2.77;1.47;;;3.40;97.30;;;;;;5009474;28;20201;-83
2021/12/02 06:51:32;;;;;;;4.33;1.87;;;3.40;97.30;;;;;;5011010;28;20742;-83
2021/12/02 06:53:59;;;;;;;5.47;1.90;;;3.40;97.30;;;;;;5010089;28;20423;-83
2021/12/02 06:56:24;;;;;;;8.60;2.30;;;3.40;97.30;;;;;;4979779;28;20206;-83
2021/12/02 06:58:50;;;;;;;6.60;2.00;;;3.30;97.30;;;;;;4974420;28;20422;-83
2021/12/02 07:01:15;;;;;;;2.37;2.00;;;3.30;97.30;;;;;;4975329;28;20182;-83
2021/12/02 07:03:41;;;;;;;3.63;1.80;;;3.30;97.30;;;;;;4974827;28;20186;-84
2021/12/02 07:06:07;;;;;;;1.73;1.27;;;3.30;97.30;;;;;;4975981;28;20201;-83
2021/12/02 07:08:33;;;;;;;2.07;1.70;;;3.30;97.30;;;;;;4976727;28;20187;-83
2021/12/02 07:11:00;;;;;;;3.03;1.67;;;3.20;97.30;;;;;;4978163;28;20269;-83
2021/12/02 07:13:25;;;;;;;5.03;1.70;;;3.20;97.30;;;;;;4974746;28;20426;-83
2021/12/02 07:15:53;;;;;;;2.10;1.40;;;3.30;97.30;;;;;;4974143;28;20466;-83
2021/12/02 07:18:19;;;;;;;2.63;1.40;;;3.20;97.30;;;;;;4974631;28;20173;-83
2021/12/02 07:20:47;;;;;;;2.23;1.40;;;3.30;97.30;;;;;;4975760;28;20468;-83
2021/12/02 07:23:14;;;;;;;2.13;1.47;;;3.30;97.30;;;;;;4983740;28;20436;-83
2021/12/02 07:25:40;;;;;;;3.87;1.40;;;3.20;97.30;;;;;;4995626;28;20990;-84
2021/12/02 07:28:08;;;;;;;5.90;1.57;;;3.30;97.30;;;;;;4977646;28;20975;-84
2021/12/02 07:30:34;;;;;;;3.97;1.93;;;3.30;97.30;;;;;;4992854;28;20460;-84
2021/12/02 07:33:03;;;;;;;10.57;2.00;;;3.30;97.30;;;;;;4993324;28;21017;-83
2021/12/02 07:35:28;;;;;;;2.87;1.27;;;3.40;97.30;;;;;;4996066;28;20273;-84
2021/12/02 07:37:58;;;;;;;7.97;2.07;;;3.40;97.30;;;;;;4994851;28;20468;-84
2021/12/02 07:40:25;;;;;;;5.23;1.80;;;3.50;97.30;;;;;;4994978;28;20408;-83
2021/12/02 07:42:52;;;;;;;6.53;1.70;;;3.50;97.30;;;;;;4996400;28;20471;-83
2021/12/02 07:45:21;;;;;;;4.27;1.90;;;3.60;97.30;;;;;;4983663;28;20804;-84
2021/12/02 07:47:46;;;;;;;2.83;1.40;;;3.60;97.30;;;;;;4982744;28;20999;-83
2021/12/02 07:50:15;;;;;;;3.23;1.73;;;3.70;97.30;;;;;;4988207;28;20457;-83
2021/12/02 07:52:47;;;;;;;3.30;2.07;;;3.70;97.30;;;;;;4991375;28;20169;-84
2021/12/02 07:55:15;;;;;;;6.50;1.83;;;3.80;97.30;;;;;;4994346;28;20456;-85
2021/12/02 07:57:43;;;;;;;7.83;1.70;;;3.80;97.30;;;;;;4994048;28;20484;-85
2021/12/02 08:00:10;;;;;;;2.00;1.17;;;3.90;97.30;;;;;;4989133;28;20559;-85
2021/12/02 08:02:36;;;;;;;7.13;1.70;;;3.90;97.30;;;;;;4993913;28;20465;-84
2021/12/02 08:05:04;;;;;;;2.33;1.57;;;3.90;97.30;;;;;;4987399;28;20513;-85
2021/12/02 08:07:29;;;;;;;15.73;1.90;;;3.90;97.30;;;;;;4974620;28;20289;-86
2021/12/02 08:09:55;;;;;;;1.30;1.30;;;3.90;97.30;;;;;;4974235;28;20546;-85
2021/12/02 08:12:20;;;;;;;2.07;1.50;;;3.90;97.30;;;;;;4974351;28;20210;-84
2021/12/02 08:14:46;;;;;;;6.17;2.43;;;3.90;97.30;;;;;;4975641;28;20186;-84
2021/12/02 08:17:12;;;;;;;14.90;2.80;;;4.00;97.30;;;;;;4977739;28;20209;-84
2021/12/02 08:19:37;;;;;;;2.60;1.60;;;4.00;97.30;;;;;;4977722;28;20198;-83
2021/12/02 08:22:03;;;;;;;3.40;1.50;;;4.00;97.30;;;;;;4976028;28;20637;-84
2021/12/02 08:24:29;;;;;;;8.43;1.50;;;4.10;97.30;;;;;;4974863;28;20178;-81
2021/12/02 08:26:54;;;;;;;9.83;1.50;;;4.10;97.30;;;;;;4982673;28;20772;-83
2021/12/02 08:29:22;;;;;;;2.87;2.10;;;4.20;97.30;;;;;;4995576;28;20182;-83
2021/12/02 08:31:48;;;;;;;4.20;1.50;;;4.20;97.30;;;;;;4995533;28;20186;-83
2021/12/02 08:34:14;;;;;;;6.60;4.77;;;4.30;97.30;;;;;;4984122;28;21082;-84
2021/12/02 08:36:46;;;;;;;1.90;1.60;;;4.30;97.30;;;;;;4995241;28;20503;-84
2021/12/02 08:39:17;;;;;;;4.83;1.80;;;4.30;97.30;;;;;;4975464;28;20186;-84
2021/12/02 08:41:48;;;;;;;2.13;1.80;;;4.40;97.30;;;;;;4978558;28;20418;-83
2021/12/02 08:44:15;;;;;;;2.70;1.63;;;4.40;97.30;;;;;;4977911;28;20466;-83
2021/12/02 08:46:41;;;;;;;5.20;1.60;;;4.40;97.30;;;;;;4978175;28;20504;-81
2021/12/02 08:49:07;;;;;;;5.70;1.60;;;4.40;97.30;;;;;;4984461;28;20433;-83
2021/12/02 08:51:33;;;;;;;4.07;1.70;;;4.40;97.30;;;;;;4997176;28;20469;-82
2021/12/02 08:53:58;;;;;;;2.90;1.63;;;4.50;97.30;;;;;;4997001;28;20181;-83
2021/12/02 08:56:24;;;;;;;1.80;1.30;;;4.70;97.30;;;;;;4979470;28;20260;-82
2021/12/02 08:58:51;;;;;;;8.87;1.77;;;4.80;97.30;;;;;;4977488;28;20179;-84
2021/12/02 09:01:17;;;;;;;3.83;1.53;;;4.80;97.30;;;;;;4976054;28;20183;-83
2021/12/02 09:03:43;;;;;;;3.53;1.73;;;4.90;97.30;;;;;;4977429;28;20492;-83
2021/12/02 09:06:11;;;;;;;4.53;1.70;;;5.00;97.30;;;;;;4990771;28;20205;-85
2021/12/02 09:08:39;;;;;;;4.00;1.60;;;5.10;97.30;;;;;;4995299;28;20236;-84
2021/12/02 09:11:05;;;;;;;5.50;1.77;;;5.20;97.30;;;;;;4996880;28;20499;-84
2021/12/02 09:13:31;;;;;;;1.67;1.40;;;5.20;97.30;;;;;;4995221;28;20471;-83
2021/12/02 09:15:56;;;;;;;4.43;1.67;;;5.10;97.30;;;;;;4997629;28;20468;-84
2021/12/02 09:18:22;;;;;;;9.07;1.77;;;5.10;97.30;;;;;;4997839;28;20425;-84
2021/12/02 09:20:48;;;;;;;7.33;1.63;;;5.10;97.30;;;;;;4996383;28;20803;-85
2021/12/02 09:23:14;;;;;;;7.73;1.73;;;5.10;97.30;;;;;;4999738;28;20409;-84
2021/12/02 09:25:41;;;;;;;2.30;1.50;;;5.10;97.30;;;;;;4990293;28;20230;-83
2021/12/02 09:28:06;;;;;;;9.97;2.03;;;5.20;97.30;;;;;;4981316;28;20179;-83
2021/12/02 09:30:33;;;;;;;6.10;1.30;;;5.20;97.30;;;;;;4974813;28;21196;-84
2021/12/02 09:32:58;;;;;;;7.63;1.50;;;5.10;97.30;;;;;;4977272;28;20945;-82
2021/12/02 09:35:25;;;;;;;5.20;1.60;;;5.10;97.30;;;;;;4978994;28;20456;-83
2021/12/02 09:38:00;;;;;;;7.23;1.30;;;5.10;97.30;;;;;;4978444;28;20178;-85
2021/12/02 09:40:26;;;;;;;6.20;1.30;;;5.10;97.30;;;;;;4972809;28;20800;-84
2021/12/02 09:42:52;;;;;;;3.33;1.37;;;5.10;97.30;;;;;;4976716;28;20422;-84
2021/12/02 09:45:18;;;;;;;6.37;1.50;;;5.20;97.20;;;;;;4973706;28;20261;-84
2021/12/02 09:47:48;;;;;;;1.70;1.30;;;5.20;97.30;;;;;;4977051;23;20577;-87
2021/12/02 09:50:20;;;;;;;2.70;1.60;;;5.30;97.30;;;;;;4946773;28;20207;-87
2021/12/02 09:52:46;;;;;;;5.87;1.40;;;5.30;97.30;;;;;;4952127;29;20442;-87
2021/12/02 09:58:07;;;;;;;8.70;1.70;;;5.30;96.50;;;;;;4950862;28;20415;-86
2021/12/02 10:00:39;;;;;;;4.30;1.53;;;5.30;96.50;;;;;;4952029;29;21093;-88
2021/12/02 10:03:16;;;;;;;8.73;1.63;;;5.20;95.50;;;;;;4952763;29;20429;-87
2021/12/02 10:05:53;;;;;;;7.20;2.20;;;5.20;96.00;;;;;;4952821;29;20421;-86
2021/12/02 10:08:30;;;;;;;3.17;1.20;;;5.30;96.90;;;;;;4952894;29;20425;-86
2021/12/02 10:10:59;;;;;;;1.57;1.27;;;5.50;96.90;;;;;;4953159;28;20703;-86
2021/12/02 10:13:30;;;;;;;6.03;1.80;;;5.60;96.40;;;;;;4953136;29;20418;-86
2021/12/02 10:16:14;;;;;;;4.87;1.20;;;5.50;95.00;;;;;;4954218;28;20428;-88
2021/12/02 10:18:58;;;;;;;2.63;1.50;;;5.50;94.90;;;;;;4952355;29;20430;-88
2021/12/02 10:21:31;;;;;;;2.63;1.23;;;5.40;94.60;;;;;;4955232;29;20573;-91
2021/12/02 10:24:18;;;;;;;2.13;1.27;;;5.40;95.00;;;;;;4964278;29;20445;-87
2021/12/02 10:26:50;;;;;;;7.03;1.90;;;5.40;95.30;;;;;;4953396;29;20450;-87
2021/12/02 10:29:21;;;;;;;1.40;1.40;;;5.20;95.30;;;;;;4952729;29;20510;-86
2021/12/02 10:32:03;;;;;;;1.80;1.40;;;5.10;95.90;;;;;;4952845;28;20471;-86
2021/12/02 10:34:29;;;;;;;6.30;1.50;;;5.10;96.00;;;;;;4953016;29;20415;-87
2021/12/02 10:36:58;;;;;;;3.77;1.63;;;5.10;96.30;;;;;;4954223;28;20418;-87
2021/12/02 10:39:25;;;;;;;14.60;2.10;;;5.10;96.30;;;;;;4948964;29;20729;-87
2021/12/02 10:42:06;;;;;;;3.60;1.50;;;5.00;96.30;;;;;;4947530;29;20529;-87
2021/12/02 10:44:35;;;;;;;5.80;1.80;;;5.00;96.30;;;;;;4952961;29;20414;-87
2021/12/02 10:47:01;;;;;;;8.07;2.00;;;5.00;96.20;;;;;;4955780;28;20454;-87
2021/12/02 10:49:29;;;;;;;6.43;1.60;;;5.00;95.50;;;;;;4952170;29;20708;-86
2021/12/02 10:51:57;;;;;;;2.80;1.40;;;5.00;96.00;;;;;;4953289;28;20453;-86
2021/12/02 10:54:32;;;;;;;5.17;1.83;;;5.00;95.90;;;;;;4954940;29;20778;-87
2021/12/02 10:57:07;;;;;;;2.63;1.50;;;5.10;95.70;;;;;;4955597;29;20450;-88
2021/12/02 10:59:37;;;;;;;5.00;1.23;;;5.10;95.70;;;;;;4954903;29;20417;-87
2021/12/02 11:02:19;;;;;;;5.70;1.53;;;5.20;96.20;;;;;;4951594;28;20448;-87
2021/12/02 11:04:54;;;;;;;8.27;1.63;;;5.30;96.10;;;;;;4949312;29;20433;-87
2021/12/02 11:07:27;;;;;;;6.20;1.90;;;5.30;95.80;;;;;;4954920;29;20756;-88
2021/12/02 11:09:54;;;;;;;6.13;1.67;;;5.30;95.50;;;;;;4951737;29;20805;-87
2021/12/02 11:12:28;;;;;;;4.73;1.80;;;5.30;95.90;;;;;;4946522;29;20450;-87
2021/12/02 11:15:10;;;;;;;4.03;1.90;;;5.30;95.90;;;;;;4954997;29;20430;-86
2021/12/02 11:17:53;;;;;;;3.00;1.53;;;5.30;95.90;;;;;;4956375;29;20415;-87
2021/12/02 11:20:31;;;;;;;4.00;1.67;;;5.20;96.10;;;;;;4970760;28;20458;-87
2021/12/02 11:23:11;;;;;;;5.87;2.00;;;5.20;96.20;;;;;;4955538;29;20446;-87
2021/12/02 11:25:39;;;;;;;8.23;2.00;;;5.20;96.60;;;;;;4954988;29;20423;-87
2021/12/02 11:28:08;;;;;;;11.10;2.00;;;5.20;97.30;;;;;;4954905;29;20459;-87
2021/12/02 11:30:37;;;;;;;3.90;1.83;;;5.20;97.30;;;;;;4952028;28;21059;-87
2021/12/02 11:33:07;;;;;;;3.90;1.80;;;5.20;97.30;;;;;;4955948;29;20506;-87
2021/12/02 11:35:36;;;;;;;13.40;3.23;;;5.10;97.30;;;;;;4954807;29;20945;-86
2021/12/02 11:38:18;;;;;;;10.00;4.33;;;5.10;97.30;;;;;;4955664;29;20494;-87
2021/12/02 11:40:50;;;;;;;4.43;2.50;;;5.00;97.30;;;;;;4970200;28;20983;-87
2021/12/02 11:43:19;;;;;;;3.20;2.23;;;5.00;97.30;;;;;;4971309;28;20422;-87
2021/12/02 11:45:47;;;;;;;8.00;2.00;;;4.90;97.30;;;;;;4970773;28;20914;-87
2021/12/02 11:48:14;;;;;;;2.90;1.73;;;4.90;97.30;;;;;;4938878;29;20466;-88
2021/12/02 11:50:42;;;;;;;3.53;2.10;;;4.80;97.30;;;;;;4953165;28;20493;-87
2021/12/02 11:53:07;;;;;;;2.87;1.67;;;4.80;97.30;;;;;;4969217;28;20478;-87
2021/12/02 11:55:40;;;;;;;2.63;2.43;;;4.80;97.30;;;;;;4954297;28;20423;-87
2021/12/02 11:58:05;;;;;;;3.67;2.20;;;4.80;97.30;;;;;;4953995;28;20171;-88
2021/12/02 12:00:31;;;;;;;1.73;1.70;;;4.80;97.00;;;;;;4953995;29;20505;-87
2021/12/02 12:03:10;;;;;;;4.30;1.77;;;4.80;97.10;;;;;;4970576;28;20247;-88
2021/12/02 12:05:39;;;;;;;3.47;2.10;;;4.80;95.70;;;;;;4968810;28;20482;-87
2021/12/02 12:08:05;;;;;;;3.53;2.10;;;4.70;95.10;;;;;;4954495;29;20418;-87
2021/12/02 12:10:41;;;;;;;5.20;2.10;;;4.70;95.50;;;;;;4952821;29;20474;-88
2021/12/02 12:13:27;;;;;;;2.80;1.80;;;4.70;95.50;;;;;;4952119;29;20421;-88
2021/12/02 12:15:55;;;;;;;8.27;2.00;;;4.70;95.50;;;;;;4954429;29;20497;-87
2021/12/02 12:18:26;;;;;;;2.40;1.80;;;4.70;95.30;;;;;;4955698;29;20415;-87
2021/12/02 12:21:07;;;;;;;2.93;1.80;;;4.70;94.40;;;;;;4954356;29;20837;-88
2021/12/02 12:23:40;;;;;;;7.13;1.60;;;4.70;94.60;;;;;;4955506;29;20422;-88
2021/12/02 12:26:18;;;;;;;3.13;1.97;;;4.70;94.60;;;;;;4954232;29;20481;-87
2021/12/02 12:29:03;;;;;;;6.60;1.83;;;4.70;94.50;;;;;;4954333;29;20484;-89
2021/12/02 12:31:29;;;;;;;5.00;1.63;;;4.70;95.20;;;;;;4957630;28;20467;-88
2021/12/02 12:33:55;;;;;;;5.70;1.73;;;4.70;95.90;;;;;;4954425;29;20427;-89
2021/12/02 12:36:42;;;;;;;3.13;2.00;;;4.70;95.90;;;;;;4955863;28;20511;-88
2021/12/02 12:39:23;;;;;;;6.57;2.30;;;4.70;96.40;;;;;;4973447;28;20925;-88
2021/12/02 12:42:16;;;;;;;3.40;1.90;;;4.70;96.20;;;;;;4980908;28;20450;-88
2021/12/02 12:44:58;;;;;;;4.90;1.80;;;4.70;96.20;;;;;;4953741;29;20917;-88
2021/12/02 12:47:45;;;;;;;5.93;1.70;;;4.70;96.70;;;;;;4953638;29;20471;-89
2021/12/02 12:50:23;;;;;;;3.90;2.80;;;4.70;97.00;;;;;;4953806;28;20467;-88
2021/12/02 12:53:05;;;;;;;4.73;1.67;;;4.70;97.20;;;;;;4951967;29;20415;-88
2021/12/02 12:55:36;;;;;;;3.57;1.80;;;4.80;97.30;;;;;;4953600;28;20419;-88
2021/12/02 12:58:06;;;;;;;7.63;2.03;;;4.80;97.30;;;;;;4953418;29;20438;-88
2021/12/02 13:00:38;;;;;;;3.30;1.90;;;4.80;97.30;;;;;;4952917;28;20450;-88
2021/12/02 13:03:09;;;;;;;5.20;2.40;;;4.80;97.30;;;;;;4953746;29;20514;-89
2021/12/02 13:05:52;;;;;;;5.20;1.77;;;4.80;97.30;;;;;;4955044;29;20423;-88
2021/12/02 13:08:22;;;;;;;4.10;1.70;;;4.80;97.20;;;;;;4953361;29;20725;-87
2021/12/02 13:10:53;;;;;;;3.57;1.57;;;4.80;97.20;;;;;;4952495;28;20466;-88
2021/12/02 13:13:25;;;;;;;3.90;2.13;;;4.80;97.30;;;;;;4952094;29;20418;-88
2021/12/02 13:15:51;;;;;;;5.53;1.80;;;4.80;97.30;;;;;;4950527;29;20419;-87
2021/12/02 13:18:41;;;;;;;4.50;1.87;;;4.70;97.30;;;;;;4949108;29;20415;-88
2021/12/02 13:21:28;;;;;;;3.50;1.73;;;4.70;97.30;;;;;;4952679;28;20195;-87
2021/12/02 13:24:07;;;;;;;4.80;1.90;;;4.70;97.10;;;;;;4949985;29;20457;-87